Sankoumaru 31 — JD2200 — position and weather

sailwx.info

Track history (hours):
 
Tides and Currents Weather Stations Pressure Air Temp Water Temp Dewpoint Dewpoint Depression Visibility Wind Speed Wind Dir Waves Ship Positions

Sankoumaru 31

Last reported at 2014-Sep-29 09:31 UTC. Time now 2014-Oct-01 06:03 UTC.
Position N 34°36' E 134°56'.

Length 75 m; draft 5 m.

Type: Cargo ship. MMSI: 431501842.

Date/timePositionNaut miles runAvg speedWind from/ knotsBaromVisibWave heightAir tempDewpointWater temp
2014-Sep-29 09:31N 34°36' E 134°56'1010.4
2014-Sep-29 08:33N 34°36' E 135°08'1212.3
2014-Sep-29 07:33N 34°36' E 135°23'4 3.5
2014-Sep-29 06:25N 34°34' E 135°27'0 0.0
2014-Sep-29 05:31N 34°34' E 135°27'0 0.0
2014-Sep-29 03:24N 34°34' E 135°27'3 3.9
2014-Sep-29 02:31N 34°32' E 135°24'2 0.6
2014-Sep-28 23:28N 34°31' E 135°24'2 0.1
2014-Sep-27 23:33N 34°32' E 135°24'1 0.5
2014-Sep-27 22:31N 34°32' E 135°23'0 0.0
2014-Sep-27 21:25N 34°32' E 135°23'0 0.0
2014-Sep-27 20:25N 34°32' E 135°23'0 0.0
2014-Sep-27 19:31N 34°32' E 135°23'0 0.0
2014-Sep-27 18:31N 34°32' E 135°23'0 0.0
2014-Sep-27 17:31N 34°32' E 135°23'3 3.3
2014-Sep-27 16:33N 34°33' E 135°19'1212.2
2014-Sep-27 15:33N 34°35' E 135°05'1511.7
2014-Sep-27 14:14N 34°40' E 134°47'  
2014-Sep-23 15:18N 34°37' E 134°53'7 9.8
2014-Sep-23 14:33N 34°37' E 135°02'1110.7
2014-Sep-23 13:34N 34°26' E 135°05'1211.1
2014-Sep-23 12:31N 34°15' E 135°03'  
Track history (hours):
 
Tides and Currents Weather Stations Pressure Air Temp Water Temp Dewpoint Dewpoint Depression Visibility Wind Speed Wind Dir Waves Ship Positions

Sankoumaru 31

Last reported at 2014-Sep-29 09:31 UTC. Time now 2014-Oct-01 06:03 UTC.
Position N 34°36' E 134°56'.

Length 75 m; draft 5 m.

Type: Cargo ship. MMSI: 431501842.

Date/timePositionNaut miles runAvg speedWind from/ knotsBaromVisibWave heightAir tempDewpointWater temp
2014-Sep-29 09:31N 34°36' E 134°56'1010.4
2014-Sep-29 08:33N 34°36' E 135°08'1212.3
2014-Sep-29 07:33N 34°36' E 135°23'4 3.5
2014-Sep-29 06:25N 34°34' E 135°27'0 0.0
2014-Sep-29 05:31N 34°34' E 135°27'0 0.0
2014-Sep-29 03:24N 34°34' E 135°27'3 3.9
2014-Sep-29 02:31N 34°32' E 135°24'2 0.6
2014-Sep-28 23:28N 34°31' E 135°24'2 0.1
2014-Sep-27 23:33N 34°32' E 135°24'1 0.5
2014-Sep-27 22:31N 34°32' E 135°23'0 0.0
2014-Sep-27 21:25N 34°32' E 135°23'0 0.0
2014-Sep-27 20:25N 34°32' E 135°23'0 0.0
2014-Sep-27 19:31N 34°32' E 135°23'0 0.0
2014-Sep-27 18:31N 34°32' E 135°23'0 0.0
2014-Sep-27 17:31N 34°32' E 135°23'3 3.3
2014-Sep-27 16:33N 34°33' E 135°19'1212.2
2014-Sep-27 15:33N 34°35' E 135°05'1511.7
2014-Sep-27 14:14N 34°40' E 134°47'  
2014-Sep-23 15:18N 34°37' E 134°53'7 9.8
2014-Sep-23 14:33N 34°37' E 135°02'1110.7
2014-Sep-23 13:34N 34°26' E 135°05'1211.1
2014-Sep-23 12:31N 34°15' E 135°03'  

Dump ship's entire track history